Time;durP1;ratioP1;P1;durP2;ratioP2;P2;SDS_P1;SDS_P2;PMS_P1;PMS_P2;Temp;Humidity;BMP_temperature;BMP_pressure;BME280_temperature;BME280_humidity;BME280_pressure;Samples;Min_cycle;Max_cycle;Signal;HPM_P1;HPM_P2
2023/04/26 00:01:31;;;;;;;9.80;4.50;;;;;;;17.57;62.27;99541.42;108021;1283;22953;-61
2023/04/26 00:03:57;;;;;;;10.00;4.30;;;;;;;17.54;62.63;99544.92;108036;1288;21994;-65
2023/04/26 00:06:23;;;;;;;9.00;4.10;;;;;;;17.50;63.08;99543.02;107962;1289;22068;-65
2023/04/26 00:08:48;;;;;;;9.70;4.80;;;;;;;17.49;62.60;99543.77;107980;1289;22003;-66
2023/04/26 00:11:14;;;;;;;14.00;5.00;;;;;;;17.46;63.75;99543.79;107978;1288;21984;-63
2023/04/26 00:13:42;;;;;;;9.80;4.70;;;;;;;17.42;63.80;99544.17;107959;1288;21992;-65
2023/04/26 00:16:08;;;;;;;8.50;4.30;;;;;;;17.39;63.28;99544.33;108103;1280;21989;-63
2023/04/26 00:18:34;;;;;;;10.90;4.80;;;;;;;17.36;63.65;99541.44;108041;1288;21991;-63
2023/04/26 00:20:59;;;;;;;9.50;4.50;;;;;;;17.31;64.23;99539.64;108079;1288;22026;-65
2023/04/26 00:23:25;;;;;;;11.20;4.80;;;;;;;17.28;63.66;99537.99;107965;1289;21993;-63
2023/04/26 00:25:51;;;;;;;12.10;5.80;;;;;;;17.26;64.54;99536.17;107988;1283;22000;-64
2023/04/26 00:28:17;;;;;;;11.30;5.10;;;;;;;17.20;64.88;99538.05;107967;1289;21988;-64
2023/04/26 00:30:46;;;;;;;10.90;5.10;;;;;;;17.17;64.28;99541.96;107950;1289;22013;-64
2023/04/26 00:33:12;;;;;;;8.20;5.00;;;;;;;17.17;63.89;99549.92;107927;1288;22024;-64
2023/04/26 00:35:38;;;;;;;10.40;4.30;;;;;;;17.18;63.74;99552.57;108061;1288;22030;-66
2023/04/26 00:38:04;;;;;;;8.00;4.40;;;;;;;17.18;64.66;99552.92;108023;1288;21991;-66
2023/04/26 00:40:30;;;;;;;13.90;5.00;;;;;;;17.19;64.16;99549.48;108038;1288;21991;-67
2023/04/26 00:42:57;;;;;;;10.10;4.20;;;;;;;17.20;63.96;99549.58;107964;1289;23967;-64
2023/04/26 00:45:22;;;;;;;8.40;4.60;;;;;;;17.21;64.05;99551.66;107939;1289;21999;-67
2023/04/26 00:47:48;;;;;;;10.20;4.00;;;;;;;17.23;64.04;99548.50;107819;1287;21983;-65
2023/04/26 00:50:13;;;;;;;8.30;3.90;;;;;;;17.25;63.98;99545.45;107807;1288;22449;-66
2023/04/26 00:52:39;;;;;;;9.20;3.80;;;;;;;17.27;63.66;99542.15;108039;1287;21993;-65
2023/04/26 00:55:08;;;;;;;10.70;4.30;;;;;;;17.28;63.68;99543.32;107953;1289;21990;-62
2023/04/26 00:57:34;;;;;;;8.20;4.20;;;;;;;17.29;63.85;99542.20;107990;1289;21996;-64
2023/04/26 01:00:00;;;;;;;10.80;4.10;;;;;;;17.27;64.21;99539.80;107846;1289;23060;-67
2023/04/26 01:02:26;;;;;;;10.50;4.70;;;;;;;17.26;63.91;99542.00;108006;1289;22042;-65
2023/04/26 01:04:51;;;;;;;9.50;4.20;;;;;;;17.25;64.39;99541.01;107994;1289;22024;-62
2023/04/26 01:07:20;;;;;;;9.60;3.70;;;;;;;17.23;64.39;99539.32;108019;1288;21995;-65
2023/04/26 01:09:46;;;;;;;8.80;3.80;;;;;;;17.22;64.13;99537.23;108041;1288;21989;-62
2023/04/26 01:12:11;;;;;;;10.00;3.90;;;;;;;17.22;64.10;99539.01;107893;1288;21985;-64
2023/04/26 01:14:38;;;;;;;12.00;4.60;;;;;;;17.23;64.84;99538.80;107899;1288;21990;-64
2023/04/26 01:17:07;;;;;;;10.90;4.10;;;;;;;17.20;65.71;99532.55;108030;1288;21996;-64
2023/04/26 01:19:36;;;;;;;9.90;4.60;;;;;;;17.18;65.41;99530.20;107976;1288;21986;-66
2023/04/26 01:22:03;;;;;;;10.60;4.20;;;;;;;17.16;65.62;99531.18;108046;1281;21984;-65
2023/04/26 01:24:29;;;;;;;11.30;4.30;;;;;;;17.16;66.26;99528.87;108085;1288;21989;-62
2023/04/26 01:26:54;;;;;;;16.20;6.00;;;;;;;17.16;66.63;99523.92;108043;1288;21986;-64
2023/04/26 01:29:21;;;;;;;13.50;5.60;;;;;;;17.16;66.44;99517.55;107905;1288;21987;-62
2023/04/26 01:31:47;;;;;;;12.80;6.80;;;;;;;17.16;66.31;99515.59;108084;1288;22095;-62
2023/04/26 01:34:13;;;;;;;15.30;5.20;;;;;;;17.16;66.71;99514.55;107932;1289;22002;-64
2023/04/26 01:36:38;;;;;;;12.40;4.30;;;;;;;17.16;66.78;99514.88;107192;1288;1002545;-64
2023/04/26 01:39:04;;;;;;;10.50;4.30;;;;;;;17.16;66.74;99511.17;108044;1288;21990;-64
2023/04/26 01:41:31;;;;;;;8.80;3.90;;;;;;;17.15;66.63;99510.67;108050;1289;21998;-62
2023/04/26 01:43:57;;;;;;;8.40;4.10;;;;;;;17.14;66.99;99508.97;107927;1289;22028;-62
2023/04/26 01:46:23;;;;;;;10.90;3.90;;;;;;;17.09;67.48;99506.89;107900;1288;22024;-64
2023/04/26 01:48:48;;;;;;;9.90;4.00;;;;;;;17.07;68.25;99507.18;108087;1288;21993;-63
2023/04/26 01:51:14;;;;;;;8.90;4.00;;;;;;;17.04;68.51;99506.83;108087;1288;22001;-62
2023/04/26 01:53:39;;;;;;;11.80;4.60;;;;;;;17.00;68.89;99504.90;108126;1288;21972;-62
2023/04/26 01:56:05;;;;;;;12.20;5.30;;;;;;;17.01;68.43;99496.19;107879;1289;21992;-64
2023/04/26 01:58:31;;;;;;;9.70;4.50;;;;;;;17.01;68.55;99492.96;107991;1283;21998;-63
2023/04/26 02:01:04;;;;;;;11.10;4.80;;;;;;;17.02;68.68;99489.95;108026;1288;21990;-62
2023/04/26 02:03:30;;;;;;;12.60;5.10;;;;;;;17.02;67.98;99492.57;107141;1289;1002947;-64
2023/04/26 02:05:55;;;;;;;15.20;5.00;;;;;;;17.02;68.21;99492.39;107909;1288;21999;-62
2023/04/26 02:08:22;;;;;;;9.90;4.00;;;;;;;17.02;67.76;99490.65;108047;1288;21990;-63
2023/04/26 02:10:47;;;;;;;12.10;4.60;;;;;;;17.03;67.91;99490.04;108075;1288;21988;-62
2023/04/26 02:13:14;;;;;;;8.80;4.20;;;;;;;17.02;67.89;99487.23;107944;1289;21986;-62
2023/04/26 02:15:39;;;;;;;7.50;4.20;;;;;;;17.03;67.93;99485.44;107951;1286;21996;-65
2023/04/26 02:18:06;;;;;;;10.10;4.20;;;;;;;17.03;67.95;99484.02;108012;1288;23065;-62
2023/04/26 02:20:32;;;;;;;9.60;3.90;;;;;;;17.03;68.17;99478.88;107964;1289;21995;-65
2023/04/26 02:22:58;;;;;;;8.80;4.10;;;;;;;17.02;69.23;99474.86;107909;1289;24324;-67
2023/04/26 02:25:23;;;;;;;11.90;4.50;;;;;;;17.01;68.76;99473.50;108026;1289;21995;-64
2023/04/26 02:27:49;;;;;;;12.20;4.60;;;;;;;17.00;69.60;99472.11;107975;1288;21990;-68
2023/04/26 02:30:16;;;;;;;11.90;4.40;;;;;;;17.00;70.46;99473.16;108125;1288;21988;-63
2023/04/26 02:32:41;;;;;;;12.90;4.80;;;;;;;17.01;70.05;99472.27;108014;1288;22054;-65
2023/04/26 02:35:08;;;;;;;13.40;4.40;;;;;;;17.00;70.93;99468.04;108064;1288;21996;-66
2023/04/26 02:37:34;;;;;;;14.30;4.60;;;;;;;17.00;70.87;99464.68;108003;1288;22047;-66
2023/04/26 02:40:00;;;;;;;10.00;4.60;;;;;;;16.99;72.64;99466.50;108066;1288;22002;-66
2023/04/26 02:42:25;;;;;;;12.80;4.70;;;;;;;16.98;72.86;99464.27;108002;1288;21982;-65
2023/04/26 02:44:51;;;;;;;14.90;5.70;;;;;;;16.98;73.17;99465.31;107936;1289;21982;-62
2023/04/26 02:47:16;;;;;;;11.90;4.20;;;;;;;16.99;72.87;99461.37;107913;1288;21982;-66
2023/04/26 02:49:42;;;;;;;13.50;5.30;;;;;;;16.99;73.06;99462.25;108022;1288;21987;-62
2023/04/26 02:52:07;;;;;;;16.20;5.20;;;;;;;16.97;74.25;99460.06;107995;1288;21996;-65
2023/04/26 02:54:33;;;;;;;12.60;4.40;;;;;;;16.92;74.60;99459.79;107974;1288;21997;-65
2023/04/26 02:56:58;;;;;;;11.90;4.20;;;;;;;16.88;74.84;99463.89;107949;1288;21990;-66
2023/04/26 02:59:24;;;;;;;9.70;4.10;;;;;;;16.87;74.39;99456.12;107983;1288;22256;-66
2023/04/26 03:01:50;;;;;;;14.30;5.00;;;;;;;16.89;74.90;99456.58;107983;1288;21996;-65
2023/04/26 03:04:16;;;;;;;12.50;5.20;;;;;;;16.86;75.93;99455.64;107992;1288;21990;-62
2023/04/26 03:06:42;;;;;;;13.40;4.40;;;;;;;16.87;75.89;99453.66;107970;1288;22164;-61
2023/04/26 03:09:08;;;;;;;14.60;4.90;;;;;;;16.87;76.21;99450.98;107922;1288;22007;-62
2023/04/26 03:11:33;;;;;;;11.40;4.90;;;;;;;16.88;76.35;99449.85;107985;1288;21992;-66
2023/04/26 03:13:59;;;;;;;14.10;5.20;;;;;;;16.89;76.51;99448.38;107981;1288;22047;-65
2023/04/26 03:16:26;;;;;;;9.90;4.00;;;;;;;16.92;76.27;99451.06;107961;1288;21997;-66
2023/04/26 03:18:52;;;;;;;12.10;4.90;;;;;;;16.97;76.28;99452.98;108052;1288;21992;-62
2023/04/26 03:21:19;;;;;;;12.20;5.00;;;;;;;16.99;75.97;99452.54;108028;1288;21999;-67
2023/04/26 03:23:45;;;;;;;15.70;5.60;;;;;;;17.00;76.06;99449.45;108022;1289;22028;-66
2023/04/26 03:26:11;;;;;;;18.70;5.80;;;;;;;17.02;76.74;99451.48;107956;1289;21994;-62
2023/04/26 03:28:37;;;;;;;10.30;4.60;;;;;;;17.01;77.23;99450.29;108066;1289;21990;-62
2023/04/26 03:31:02;;;;;;;13.70;4.80;;;;;;;17.04;76.24;99452.42;107947;1289;22006;-67
2023/04/26 03:33:29;;;;;;;13.00;4.10;;;;;;;17.07;75.95;99454.73;107953;1289;21987;-62
2023/04/26 03:35:55;;;;;;;13.60;4.60;;;;;;;17.11;75.98;99455.27;108033;1289;21988;-66
2023/04/26 03:38:22;;;;;;;13.70;4.70;;;;;;;17.12;77.07;99454.69;107997;1288;21993;-67
2023/04/26 03:40:48;;;;;;;9.60;3.90;;;;;;;17.12;77.40;99452.90;108083;1288;22005;-64
2023/04/26 03:43:13;;;;;;;11.80;5.00;;;;;;;17.11;78.29;99449.95;107995;1289;22024;-67
2023/04/26 03:45:42;;;;;;;12.20;4.60;;;;;;;17.10;78.85;99444.49;107963;1289;22000;-66
2023/04/26 03:48:08;;;;;;;16.60;4.60;;;;;;;17.10;79.20;99442.88;107907;1288;22034;-63
2023/04/26 03:50:33;;;;;;;16.20;4.40;;;;;;;17.14;79.61;99440.02;108075;1288;21995;-66
2023/04/26 03:52:59;;;;;;;13.70;4.50;;;;;;;17.14;79.62;99443.19;108090;1288;21998;-65
2023/04/26 03:55:25;;;;;;;10.40;4.60;;;;;;;17.13;79.75;99448.21;108085;1283;21991;-64
2023/04/26 03:57:52;;;;;;;22.60;5.20;;;;;;;17.12;81.43;99447.20;107846;1288;140130;-63
2023/04/26 04:00:21;;;;;;;14.50;4.80;;;;;;;17.12;82.37;99457.16;108021;1288;22007;-65
2023/04/26 04:02:46;;;;;;;10.50;4.20;;;;;;;17.15;83.61;99460.55;108041;1288;21995;-63
2023/04/26 04:05:12;;;;;;;13.50;4.60;;;;;;;17.19;84.28;99461.88;108086;1288;21989;-65
2023/04/26 04:07:38;;;;;;;13.70;4.70;;;;;;;17.22;84.66;99462.27;108017;1280;21998;-62
2023/04/26 04:10:06;;;;;;;14.20;5.50;;;;;;;17.25;84.76;99464.77;107990;1289;21989;-65
2023/04/26 04:12:32;;;;;;;17.10;5.10;;;;;;;17.25;84.86;99461.75;108081;1289;21990;-66
2023/04/26 04:14:57;;;;;;;15.30;6.70;;;;;;;17.27;83.89;99460.04;108049;1288;22007;-65
2023/04/26 04:17:23;;;;;;;18.90;5.90;;;;;;;17.23;86.70;99463.80;107979;1289;21989;-64
2023/04/26 04:19:49;;;;;;;14.90;5.50;;;;;;;17.23;88.19;99463.13;107978;1289;21997;-62
2023/04/26 04:22:14;;;;;;;15.20;4.90;;;;;;;17.24;89.11;99462.89;107909;1289;22001;-64
2023/04/26 04:24:41;;;;;;;12.30;4.40;;;;;;;17.26;89.07;99462.39;107943;1288;21992;-63
2023/04/26 04:27:07;;;;;;;14.90;6.10;;;;;;;17.29;88.99;99463.86;108010;1288;22004;-62
2023/04/26 04:29:33;;;;;;;17.10;5.60;;;;;;;17.31;89.49;99467.79;108045;1288;22194;-62
2023/04/26 04:31:59;;;;;;;12.80;5.40;;;;;;;17.37;89.64;99468.37;107990;1288;21990;-68
2023/04/26 04:34:25;;;;;;;14.60;5.70;;;;;;;17.41;89.62;99469.74;107982;1288;21990;-68
2023/04/26 04:36:50;;;;;;;14.70;5.10;;;;;;;17.47;88.44;99469.61;108002;1288;22359;-63
2023/04/26 04:39:16;;;;;;;13.50;4.90;;;;;;;17.54;86.86;99470.09;108040;1288;22003;-63
2023/04/26 04:41:51;;;;;;;13.90;5.20;;;;;;;17.58;85.80;99468.46;108102;1288;22007;-62
2023/04/26 04:44:17;;;;;;;15.60;6.10;;;;;;;17.60;86.58;99470.14;108059;1288;22027;-68
2023/04/26 04:46:43;;;;;;;13.50;5.30;;;;;;;17.60;87.34;99469.80;108044;1281;22046;-62
2023/04/26 04:49:11;;;;;;;16.50;5.80;;;;;;;17.62;86.85;99470.92;108128;1288;23622;-63
2023/04/26 04:51:37;;;;;;;15.00;5.20;;;;;;;17.62;87.50;99467.00;108043;1281;21989;-69
2023/04/26 04:54:14;;;;;;;13.00;5.50;;;;;;;17.68;86.48;99467.53;108485;1289;22270;-68
2023/04/26 04:56:40;;;;;;;19.80;5.60;;;;;;;17.72;85.85;99466.59;108007;1289;21990;-61
2023/04/26 04:59:06;;;;;;;18.20;5.40;;;;;;;17.73;87.26;99470.65;107999;1289;21990;-62
2023/04/26 05:01:32;;;;;;;12.80;5.80;;;;;;;17.77;86.11;99471.45;107993;1288;21991;-61
2023/04/26 05:03:58;;;;;;;13.70;6.10;;;;;;;17.80;86.02;99468.98;108070;1288;22037;-61
2023/04/26 05:06:24;;;;;;;11.50;4.80;;;;;;;17.84;86.33;99469.48;108082;1288;21981;-61
2023/04/26 05:08:50;;;;;;;12.10;4.80;;;;;;;17.86;86.69;99470.42;108041;1288;21992;-67
2023/04/26 05:11:15;;;;;;;15.30;5.00;;;;;;;17.87;86.24;99468.45;108077;1288;21990;-68
2023/04/26 05:13:43;;;;;;;18.20;5.30;;;;;;;17.90;85.84;99467.18;108074;1288;22052;-67
2023/04/26 05:16:08;;;;;;;11.60;4.80;;;;;;;17.91;85.79;99461.62;108076;1289;21990;-63
2023/04/26 05:18:34;;;;;;;13.10;5.90;;;;;;;17.92;86.41;99461.57;108021;1288;21989;-67
2023/04/26 05:20:59;;;;;;;12.80;4.80;;;;;;;17.96;85.36;99461.02;108024;1288;21995;-62
2023/04/26 05:23:25;;;;;;;15.90;5.80;;;;;;;18.02;83.36;99464.42;107969;1289;21988;-62
2023/04/26 05:25:51;;;;;;;16.80;5.40;;;;;;;18.05;82.87;99462.27;107967;1288;22026;-67
2023/04/26 05:28:16;;;;;;;11.70;4.90;;;;;;;18.09;82.04;99466.70;107826;1288;22005;-63
2023/04/26 05:30:42;;;;;;;14.20;4.60;;;;;;;18.08;83.16;99464.60;108106;1288;21990;-62
2023/04/26 05:33:08;;;;;;;13.70;4.30;;;;;;;18.08;82.82;99465.30;107942;1289;21987;-67
2023/04/26 05:35:34;;;;;;;13.00;4.40;;;;;;;18.11;82.05;99468.34;108035;1288;21987;-67
2023/04/26 05:38:00;;;;;;;13.30;4.80;;;;;;;18.15;81.85;99470.58;108109;1288;22008;-66
2023/04/26 05:40:25;;;;;;;13.20;5.10;;;;;;;18.18;82.42;99469.20;108084;1284;21960;-66
2023/04/26 05:42:51;;;;;;;15.80;5.50;;;;;;;18.19;82.55;99470.16;107986;1288;21997;-62
2023/04/26 05:45:16;;;;;;;12.20;4.90;;;;;;;18.23;82.03;99467.98;108107;1288;21991;-61
2023/04/26 05:47:42;;;;;;;14.80;6.00;;;;;;;18.27;82.66;99465.13;108053;1289;21991;-61
2023/04/26 05:50:09;;;;;;;10.50;5.10;;;;;;;18.32;81.60;99464.11;107967;1289;22001;-67
2023/04/26 05:52:35;;;;;;;18.60;6.80;;;;;;;18.36;81.51;99464.02;107699;1289;22044;-62
2023/04/26 05:55:03;;;;;;;14.50;6.40;;;;;;;18.40;81.54;99464.34;108023;1288;21996;-67
2023/04/26 05:57:29;;;;;;;14.60;6.00;;;;;;;18.40;81.78;99466.78;108105;1288;22046;-62
2023/04/26 05:59:55;;;;;;;13.30;6.10;;;;;;;18.40;81.48;99470.40;108073;1286;22030;-66
2023/04/26 06:02:20;;;;;;;10.20;5.00;;;;;;;18.41;81.24;99473.86;108068;1288;21997;-66
2023/04/26 06:04:46;;;;;;;10.90;5.70;;;;;;;18.46;80.99;99479.06;107958;1289;22492;-62
2023/04/26 06:07:11;;;;;;;17.10;6.50;;;;;;;18.48;87.45;99480.25;107962;1288;21994;-62
2023/04/26 06:09:37;;;;;;;11.30;5.40;;;;;;;18.47;89.84;99482.25;107945;1288;21984;-66
2023/04/26 06:12:03;;;;;;;16.20;6.20;;;;;;;18.46;88.76;99484.58;107805;1288;21995;-61
2023/04/26 06:14:29;;;;;;;11.00;5.70;;;;;;;18.49;87.33;99489.91;108005;1288;22002;-61
2023/04/26 06:16:55;;;;;;;9.80;5.10;;;;;;;18.51;85.59;99491.96;107911;1284;22007;-66
2023/04/26 06:19:21;;;;;;;11.80;5.70;;;;;;;18.50;83.58;99492.52;107798;1288;23632;-65
2023/04/26 06:21:47;;;;;;;12.30;6.50;;;;;;;18.53;82.28;99490.59;107954;1288;22009;-65
2023/04/26 06:24:14;;;;;;;12.40;5.80;;;;;;;18.55;82.07;99492.58;107988;1284;22012;-62
2023/04/26 06:26:39;;;;;;;15.30;7.80;;;;;;;18.58;81.88;99493.64;108020;1287;21991;-65
2023/04/26 06:29:05;;;;;;;25.00;11.80;;;;;;;18.61;82.47;99498.63;107814;1288;23214;-65
2023/04/26 06:31:31;;;;;;;20.30;9.50;;;;;;;18.73;81.60;99500.08;107974;1288;21997;-64
2023/04/26 06:33:57;;;;;;;22.10;9.70;;;;;;;18.80;81.17;99499.83;107977;1288;22002;-61
2023/04/26 06:36:25;;;;;;;26.00;14.40;;;;;;;18.85;81.60;99503.94;107978;1288;22000;-61
2023/04/26 06:38:50;;;;;;;30.50;16.00;;;;;;;18.91;81.26;99506.81;107995;1289;21987;-63
2023/04/26 06:41:16;;;;;;;31.60;16.40;;;;;;;18.97;80.72;99506.62;107978;1287;21995;-64
2023/04/26 06:43:42;;;;;;;36.70;17.50;;;;;;;19.04;80.79;99509.76;107951;1288;23607;-61
2023/04/26 06:46:07;;;;;;;26.90;13.70;;;;;;;19.12;82.68;99510.88;107971;1288;21986;-63
2023/04/26 06:48:34;;;;;;;16.60;8.40;;;;;;;19.24;82.95;99507.08;107828;1288;22099;-61
2023/04/26 06:51:04;;;;;;;13.10;6.00;;;;;;;19.41;83.69;99508.56;108028;1288;21996;-61
2023/04/26 06:53:31;;;;;;;11.40;4.90;;;;;;;19.59;84.46;99509.19;108059;1289;21989;-64
2023/04/26 06:55:57;;;;;;;12.30;6.00;;;;;;;19.71;82.77;99509.54;107882;1289;21989;-62
2023/04/26 06:58:22;;;;;;;11.30;5.80;;;;;;;19.84;81.56;99509.23;107955;1289;22000;-62
2023/04/26 07:00:49;;;;;;;12.30;5.90;;;;;;;19.97;81.01;99508.73;107957;1288;21995;-63
2023/04/26 07:03:15;;;;;;;9.00;4.20;;;;;;;20.03;80.00;99512.80;107919;1289;23612;-61
2023/04/26 07:05:41;;;;;;;10.90;4.50;;;;;;;20.05;79.08;99516.79;107931;1288;21992;-64
2023/04/26 07:08:07;;;;;;;12.00;4.90;;;;;;;20.06;79.86;99514.61;108017;1288;22165;-61
2023/04/26 07:10:32;;;;;;;13.00;5.90;;;;;;;20.07;80.55;99519.82;107961;1289;22022;-63
2023/04/26 07:12:58;;;;;;;14.30;5.50;;;;;;;20.12;79.81;99519.37;107909;1289;21995;-63
2023/04/26 07:15:23;;;;;;;12.10;4.70;;;;;;;20.17;79.59;99520.41;108022;1289;21992;-62
2023/04/26 07:17:49;;;;;;;14.80;7.30;;;;;;;20.21;78.65;99518.74;107943;1287;21988;-61
2023/04/26 07:20:18;;;;;;;10.80;6.30;;;;;;;20.32;78.18;99516.05;107954;1288;21988;-61
2023/04/26 07:22:45;;;;;;;9.90;5.60;;;;;;;20.44;77.90;99518.68;107935;1288;21995;-63
2023/04/26 07:25:11;;;;;;;11.90;5.40;;;;;;;20.53;78.16;99513.83;108009;1288;23266;-63
2023/04/26 07:27:37;;;;;;;12.00;5.80;;;;;;;20.61;78.17;99514.70;107821;1287;23631;-62
2023/04/26 07:30:04;;;;;;;11.90;5.80;;;;;;;20.81;77.27;99514.08;107937;1288;21990;-62
2023/04/26 07:32:30;;;;;;;14.60;5.50;;;;;;;20.98;77.25;99517.34;108029;1288;23625;-63
2023/04/26 07:34:56;;;;;;;11.00;4.60;;;;;;;21.15;76.25;99517.96;107999;1289;21995;-61
2023/04/26 07:37:21;;;;;;;12.30;4.70;;;;;;;21.26;75.25;99519.52;107996;1288;22029;-62
2023/04/26 07:39:47;;;;;;;8.70;4.80;;;;;;;21.36;74.98;99519.91;108045;1288;21990;-64
2023/04/26 07:42:13;;;;;;;12.90;6.20;;;;;;;21.53;74.50;99516.73;107890;1288;21987;-62
2023/04/26 07:44:38;;;;;;;12.60;6.60;;;;;;;21.65;71.89;99518.20;107849;1289;21990;-63
2023/04/26 07:47:04;;;;;;;12.40;5.80;;;;;;;21.77;71.13;99516.99;107875;1288;21999;-61
2023/04/26 07:49:30;;;;;;;11.00;5.70;;;;;;;21.89;70.78;99518.29;108085;1288;22096;-61
2023/04/26 07:51:57;;;;;;;13.30;4.70;;;;;;;21.99;70.44;99516.33;108063;1289;22001;-61
2023/04/26 07:54:22;;;;;;;10.00;4.30;;;;;;;22.12;70.34;99518.58;108042;1289;21994;-61
2023/04/26 07:56:48;;;;;;;9.60;3.70;;;;;;;22.12;67.69;99521.42;107958;1288;21987;-63
2023/04/26 07:59:14;;;;;;;8.60;3.60;;;;;;;22.05;67.27;99524.95;107920;1288;21980;-62
2023/04/26 08:01:40;;;;;;;10.40;3.70;;;;;;;22.01;67.74;99525.47;107840;1289;22966;-62
2023/04/26 08:04:05;;;;;;;7.80;4.00;;;;;;;21.81;66.67;99530.26;107969;1288;22032;-62
2023/04/26 08:06:32;;;;;;;10.40;4.50;;;;;;;21.74;67.21;99528.48;107961;1287;22101;-62
2023/04/26 08:09:00;;;;;;;14.40;5.20;;;;;;;21.82;67.68;99531.25;108067;1288;23653;-63
2023/04/26 08:11:26;;;;;;;8.90;3.90;;;;;;;21.86;67.37;99530.13;107942;1288;22486;-61
2023/04/26 08:13:52;;;;;;;9.50;3.80;;;;;;;21.88;67.22;99528.56;108022;1288;23006;-61
2023/04/26 08:16:18;;;;;;;8.50;4.80;;;;;;;21.98;68.24;99521.16;107988;1288;23626;-61
2023/04/26 08:18:43;;;;;;;12.60;5.30;;;;;;;22.17;68.65;99515.85;107978;1289;22009;-62
2023/04/26 08:21:09;;;;;;;9.50;4.60;;;;;;;22.39;67.43;99516.78;107981;1289;23599;-61
2023/04/26 08:23:35;;;;;;;10.70;4.60;;;;;;;22.56;66.89;99516.88;107973;1284;21997;-63
2023/04/26 08:26:01;;;;;;;8.90;4.30;;;;;;;22.64;65.90;99513.64;107960;1289;21993;-61
2023/04/26 08:28:26;;;;;;;8.80;3.80;;;;;;;22.67;64.83;99512.02;107997;1289;21990;-61
2023/04/26 08:30:52;;;;;;;10.70;4.50;;;;;;;22.71;65.65;99507.88;107961;1289;21990;-61
2023/04/26 08:33:18;;;;;;;9.10;5.00;;;;;;;22.87;66.43;99507.23;107966;1288;21989;-63
2023/04/26 08:35:44;;;;;;;9.80;4.30;;;;;;;23.01;65.15;99506.16;107989;1289;21986;-61
2023/04/26 08:38:10;;;;;;;10.20;4.40;;;;;;;23.04;62.78;99507.54;108024;1283;21990;-62
2023/04/26 08:40:36;;;;;;;10.40;4.20;;;;;;;23.15;64.39;99505.04;108047;1288;21987;-61
2023/04/26 08:43:02;;;;;;;12.30;4.10;;;;;;;23.31;64.17;99505.23;107817;1288;21986;-62
2023/04/26 08:45:27;;;;;;;9.50;4.00;;;;;;;23.38;62.24;99507.05;108009;1289;21993;-61
2023/04/26 08:47:57;;;;;;;11.90;4.30;;;;;;;23.34;61.26;99508.44;107948;1289;21953;-62
2023/04/26 08:50:23;;;;;;;8.00;4.40;;;;;;;23.41;62.17;99513.38;108004;1289;22458;-63
2023/04/26 08:52:50;;;;;;;7.10;3.50;;;;;;;23.55;62.86;99513.58;108030;1289;24083;-62
2023/04/26 08:55:16;;;;;;;11.30;4.10;;;;;;;23.69;61.74;99512.11;107895;1289;22456;-63
2023/04/26 08:57:44;;;;;;;8.80;4.10;;;;;;;23.71;59.98;99508.52;108021;1289;21993;-62
2023/04/26 09:00:14;;;;;;;12.00;4.50;;;;;;;23.72;60.11;99510.41;107973;1289;21993;-62
2023/04/26 09:02:51;;;;;;;9.90;5.10;;;;;;;23.67;59.82;99513.87;107942;1289;22778;-61
2023/04/26 09:05:22;;;;;;;11.60;4.40;;;;;;;23.64;60.36;99518.27;107937;1288;21993;-61
2023/04/26 09:07:48;;;;;;;9.80;3.80;;;;;;;23.58;60.03;99517.60;108063;1288;21998;-62
2023/04/26 09:10:21;;;;;;;9.00;3.90;;;;;;;23.58;60.15;99517.57;107880;1288;21987;-62
2023/04/26 09:12:53;;;;;;;5.20;2.80;;;;;;;23.62;58.93;99516.42;108100;1288;21991;-60
2023/04/26 09:15:20;;;;;;;10.10;3.40;;;;;;;23.58;57.79;99514.00;108082;1288;22061;-62
2023/04/26 09:17:48;;;;;;;5.30;3.10;;;;;;;23.55;57.85;99511.74;108086;1287;22317;-61
2023/04/26 09:20:23;;;;;;;9.30;3.40;;;;;;;23.51;57.86;99510.14;108007;1289;22000;-63
2023/04/26 09:23:07;;;;;;;6.10;3.10;;;;;;;23.53;58.48;99509.48;107964;1289;22254;-61
2023/04/26 09:25:33;;;;;;;8.30;2.50;;;;;;;23.56;57.89;99509.04;108048;1286;22090;-61
2023/04/26 09:28:00;;;;;;;7.30;3.10;;;;;;;23.52;57.39;99507.38;107970;1288;21999;-61
2023/04/26 09:30:26;;;;;;;5.30;2.60;;;;;;;23.50;57.73;99505.34;107990;1288;21987;-61
2023/04/26 09:32:55;;;;;;;9.70;3.20;;;;;;;23.48;57.46;99504.64;108044;1288;21990;-61
2023/04/26 09:35:31;;;;;;;6.80;2.90;;;;;;;23.48;57.17;99507.19;108031;1288;21977;-61
2023/04/26 09:38:07;;;;;;;7.10;2.60;;;;;;;23.45;56.77;99512.19;107928;1288;21992;-61
2023/04/26 09:40:35;;;;;;;5.30;2.30;;;;;;;23.47;56.82;99512.06;107971;1288;22003;-61
2023/04/26 09:43:03;;;;;;;8.40;2.70;;;;;;;23.49;56.80;99508.50;108063;1288;21990;-61
2023/04/26 09:45:32;;;;;;;5.70;2.80;;;;;;;23.55;57.59;99505.55;107970;1288;23767;-60
2023/04/26 09:48:24;;;;;;;6.40;2.70;;;;;;;23.62;57.18;99510.71;108035;1288;21990;-60
2023/04/26 09:50:55;;;;;;;7.60;2.00;;;;;;;23.70;56.78;99507.75;107967;1288;22456;-61
2023/04/26 09:53:39;;;;;;;7.10;3.00;;;;;;;23.84;56.63;99507.80;108046;1286;23611;-60
2023/04/26 09:56:12;;;;;;;5.30;2.90;;;;;;;24.02;56.88;99506.02;108020;1288;22108;-61
2023/04/26 09:58:46;;;;;;;7.60;3.80;;;;;;;24.19;56.86;99502.48;108000;1288;22188;-61
2023/04/26 10:01:16;;;;;;;7.80;3.90;;;;;;;24.33;57.16;99498.59;107901;1288;21990;-61
2023/04/26 10:03:42;;;;;;;6.10;2.70;;;;;;;24.47;57.00;99500.55;108045;1288;21995;-62
2023/04/26 10:06:08;;;;;;;5.00;2.10;;;;;;;24.47;55.10;99498.20;107995;1288;21983;-62
2023/04/26 10:08:35;;;;;;;9.40;3.70;;;;;;;24.44;55.11;99499.48;108029;1284;22171;-62
2023/04/26 10:11:03;;;;;;;6.00;3.30;;;;;;;24.47;56.05;99498.03;108008;1288;21994;-62
2023/04/26 10:13:31;;;;;;;7.20;2.30;;;;;;;24.59;56.85;99495.73;107881;1288;21990;-62
2023/04/26 10:15:56;;;;;;;6.50;2.30;;;;;;;24.86;55.61;99492.22;108002;1284;21992;-63
2023/04/26 10:18:22;;;;;;;5.40;2.00;;;;;;;25.02;53.46;99490.80;107975;1288;22633;-62
2023/04/26 10:20:50;;;;;;;5.30;2.30;;;;;;;25.17;53.98;99491.14;107973;1288;22009;-62
2023/04/26 10:23:21;;;;;;;11.60;3.60;;;;;;;25.27;54.05;99490.33;108041;1288;22108;-63
2023/04/26 10:25:47;;;;;;;11.50;4.20;;;;;;;25.35;54.56;99486.88;107827;1288;23221;-62
2023/04/26 10:28:13;;;;;;;9.80;3.40;;;;;;;25.38;53.92;99489.73;108029;1288;21990;-62
2023/04/26 10:30:57;;;;;;;8.40;3.30;;;;;;;25.37;54.83;99491.56;107992;1288;21988;-61
2023/04/26 10:33:24;;;;;;;8.20;3.40;;;;;;;25.31;53.27;99485.30;107981;1289;21999;-60
2023/04/26 10:35:59;;;;;;;12.20;4.70;;;;;;;25.17;53.09;99490.60;108068;1288;21997;-62
2023/04/26 10:38:25;;;;;;;16.80;4.50;;;;;;;25.01;54.12;99488.23;108081;1289;23724;-61
2023/04/26 10:40:51;;;;;;;10.10;3.90;;;;;;;25.01;55.73;99487.88;107985;1289;22017;-61
2023/04/26 10:43:18;;;;;;;10.50;3.40;;;;;;;25.14;56.74;99491.25;108174;1284;21990;-61
2023/04/26 10:45:44;;;;;;;8.40;3.30;;;;;;;25.25;54.18;99493.48;108063;1288;21989;-61
2023/04/26 10:48:16;;;;;;;7.70;2.80;;;;;;;25.35;54.72;99492.05;108074;1289;21999;-61
2023/04/26 10:51:00;;;;;;;9.00;3.40;;;;;;;25.40;54.23;99494.70;108059;1288;21985;-62
2023/04/26 10:53:46;;;;;;;12.10;4.20;;;;;;;25.37;53.70;99497.70;108098;1288;23672;-62
2023/04/26 10:56:24;;;;;;;10.00;3.00;;;;;;;25.20;53.74;99502.20;107812;1288;21994;-62
2023/04/26 10:59:12;;;;;;;8.90;2.60;;;;;;;25.36;55.09;99500.68;108139;1288;21975;-62
2023/04/26 11:01:41;;;;;;;8.90;3.30;;;;;;;25.58;53.95;99502.34;108073;1288;21995;-63
2023/04/26 11:04:07;;;;;;;11.70;2.80;;;;;;;25.69;52.28;99498.89;108103;1288;23640;-62
2023/04/26 11:06:52;;;;;;;7.70;3.00;;;;;;;25.72;52.42;99493.35;108129;1288;21983;-62
2023/04/26 11:09:36;;;;;;;6.70;3.00;;;;;;;25.70;52.02;99501.63;108109;1288;21987;-63
2023/04/26 11:12:03;;;;;;;7.10;2.00;;;;;;;25.55;51.88;99507.77;107974;1288;22000;-62
2023/04/26 11:14:29;;;;;;;12.20;3.00;;;;;;;25.47;51.00;99507.64;108188;1288;22001;-63
2023/04/26 11:16:55;;;;;;;10.50;3.80;;;;;;;25.47;52.46;99505.69;108139;1288;23647;-62
2023/04/26 11:19:21;;;;;;;7.10;3.10;;;;;;;25.52;52.96;99505.16;108086;1287;22286;-62